createdAt,value
2018-09-19T00:02:23.343Z,67.60
2018-09-19T00:04:51.455Z,67.40
2018-09-19T00:07:19.561Z,67.30
2018-09-19T00:09:47.645Z,67.30
2018-09-19T00:12:15.797Z,67.20
2018-09-19T00:14:43.878Z,67.40
2018-09-19T00:17:11.967Z,67.50
2018-09-19T00:19:40.066Z,67.40
2018-09-19T00:22:08.181Z,67.60
2018-09-19T00:24:36.336Z,67.70
2018-09-19T00:27:04.446Z,68.30
2018-09-19T00:29:32.546Z,67.70
2018-09-19T00:32:00.643Z,67.60
2018-09-19T00:34:28.746Z,69.40
2018-09-19T00:36:56.865Z,69.20
2018-09-19T00:39:24.993Z,69.80
2018-09-19T00:41:53.133Z,68.80
2018-09-19T00:44:21.200Z,69.00
2018-09-19T00:46:49.298Z,68.60
2018-09-19T00:49:17.380Z,68.60
2018-09-19T00:51:45.496Z,68.70
2018-09-19T00:54:13.559Z,68.70
2018-09-19T00:56:41.712Z,68.40
2018-09-19T00:59:09.771Z,68.80
2018-09-19T01:01:37.862Z,68.90
2018-09-19T01:04:06.007Z,69.00
2018-09-19T01:06:34.094Z,69.10
2018-09-19T01:09:02.178Z,69.00
2018-09-19T01:11:30.284Z,69.00
2018-09-19T01:13:58.402Z,69.00
2018-09-19T01:16:26.524Z,70.50
2018-09-19T01:18:54.620Z,70.20
2018-09-19T01:21:22.754Z,70.10
2018-09-19T01:23:50.876Z,69.70
2018-09-19T01:26:18.986Z,69.80
2018-09-19T01:28:47.071Z,69.70
2018-09-19T01:31:15.144Z,69.60
2018-09-19T01:33:43.262Z,69.70
2018-09-19T01:36:11.348Z,69.60
2018-09-19T01:38:39.450Z,69.60
2018-09-19T01:41:07.806Z,69.50
2018-09-19T01:43:35.907Z,69.60
2018-09-19T01:46:03.987Z,69.60
2018-09-19T01:48:32.132Z,69.80
2018-09-19T01:51:00.239Z,69.50
2018-09-19T01:53:28.328Z,70.60
2018-09-19T01:55:56.404Z,69.60
2018-09-19T01:58:24.594Z,69.60
2018-09-19T02:00:52.694Z,71.00
2018-09-19T02:03:20.778Z,70.80
2018-09-19T02:05:48.874Z,70.60
2018-09-19T02:08:16.954Z,70.20
2018-09-19T02:10:45.032Z,70.20
2018-09-19T02:13:13.102Z,69.90
2018-09-19T02:15:41.214Z,69.70
2018-09-19T02:18:09.294Z,69.70
2018-09-19T02:20:37.400Z,69.80
2018-09-19T02:23:05.587Z,69.90
2018-09-19T02:25:33.678Z,70.10
2018-09-19T02:28:01.976Z,69.90
2018-09-19T02:30:30.078Z,70.00
2018-09-19T02:32:58.300Z,70.10
2018-09-19T02:35:26.417Z,70.10
2018-09-19T02:37:54.506Z,70.30
2018-09-19T02:40:22.678Z,70.20
2018-09-19T02:42:50.833Z,70.20
2018-09-19T02:45:18.949Z,71.50
2018-09-19T02:47:46.999Z,71.30
2018-09-19T02:50:15.074Z,71.20
2018-09-19T02:52:43.226Z,71.10
2018-09-19T02:55:11.314Z,70.80
2018-09-19T02:57:39.395Z,70.80
2018-09-19T03:00:07.475Z,70.90
2018-09-19T03:02:35.620Z,70.90
2018-09-19T03:05:03.712Z,71.00
2018-09-19T03:07:31.829Z,71.00
2018-09-19T03:09:59.986Z,71.20
2018-09-19T03:12:28.074Z,71.20
2018-09-19T03:14:56.166Z,71.40
2018-09-19T03:17:24.334Z,71.40
2018-09-19T03:19:52.451Z,71.50
2018-09-19T03:22:20.573Z,71.60
2018-09-19T03:24:48.655Z,71.50
2018-09-19T03:27:16.749Z,71.50
2018-09-19T03:29:44.867Z,72.60
2018-09-19T03:32:13.325Z,72.30
2018-09-19T03:34:41.528Z,72.10
2018-09-19T03:37:09.665Z,72.00
2018-09-19T03:39:37.743Z,71.80
2018-09-19T03:42:05.826Z,71.80
2018-09-19T03:44:33.912Z,71.60
2018-09-19T03:47:02.031Z,71.70
2018-09-19T03:49:30.233Z,71.70
2018-09-19T03:51:58.320Z,71.50
2018-09-19T03:54:26.406Z,71.60
2018-09-19T03:56:54.503Z,71.70
2018-09-19T03:59:22.696Z,71.80
2018-09-19T04:01:51.152Z,71.90
2018-09-19T04:04:19.274Z,72.10
2018-09-19T04:06:47.356Z,72.10
2018-09-19T04:09:15.519Z,72.10
2018-09-19T04:11:43.615Z,72.20
2018-09-19T04:14:12.414Z,72.20
2018-09-19T04:16:41.098Z,72.30
2018-09-19T04:19:09.226Z,72.30
2018-09-19T04:21:41.574Z,73.70
2018-09-19T04:24:09.696Z,73.50
2018-09-19T04:26:37.777Z,73.30
2018-09-19T04:29:05.862Z,73.20
2018-09-19T04:31:33.967Z,73.00
2018-09-19T04:34:02.062Z,73.00
2018-09-19T04:36:30.152Z,73.20
2018-09-19T04:38:58.264Z,73.00
2018-09-19T04:41:26.375Z,73.00
2018-09-19T04:43:54.441Z,73.10
2018-09-19T04:46:22.520Z,73.00
2018-09-19T04:48:50.675Z,73.00
2018-09-19T04:51:18.949Z,73.10
2018-09-19T04:53:47.094Z,73.10
2018-09-19T04:56:15.195Z,73.10
2018-09-19T04:58:43.473Z,73.10
2018-09-19T05:01:11.806Z,73.00
2018-09-19T05:03:39.907Z,73.30
2018-09-19T05:06:07.999Z,74.60
2018-09-19T05:08:36.145Z,74.60
2018-09-19T05:11:04.206Z,74.30
2018-09-19T05:13:32.300Z,74.00
2018-09-19T05:16:00.362Z,74.10
2018-09-19T05:18:28.440Z,74.40
2018-09-19T05:20:56.548Z,73.80
2018-09-19T05:23:24.637Z,73.80
2018-09-19T05:25:52.786Z,73.70
2018-09-19T05:28:20.980Z,73.50
2018-09-19T05:30:49.155Z,73.50
2018-09-19T05:33:17.228Z,73.80
2018-09-19T05:35:45.316Z,73.90
2018-09-19T05:38:13.494Z,73.80
2018-09-19T05:40:41.607Z,74.00
2018-09-19T05:43:09.747Z,74.10
2018-09-19T05:45:37.855Z,74.10
2018-09-19T05:48:05.974Z,74.10
2018-09-19T05:50:34.059Z,74.10
2018-09-19T05:53:02.128Z,74.40
2018-09-19T05:55:30.246Z,75.30
2018-09-19T05:57:58.417Z,74.60
2018-09-19T06:00:26.541Z,76.00
2018-09-19T06:02:54.632Z,76.00
2018-09-19T06:05:22.732Z,76.20
2018-09-19T06:07:50.852Z,76.30
2018-09-19T06:10:18.935Z,76.40
2018-09-19T06:12:47.075Z,76.40
2018-09-19T06:15:15.192Z,76.50
2018-09-19T06:17:43.317Z,76.60
2018-09-19T06:20:12.051Z,76.50
2018-09-19T06:22:40.123Z,76.60
2018-09-19T06:25:08.350Z,76.70
2018-09-19T06:27:36.480Z,76.90
2018-09-19T06:30:05.129Z,76.90
2018-09-19T06:32:33.197Z,77.00
2018-09-19T06:35:01.308Z,77.90
2018-09-19T06:37:29.402Z,77.50
2018-09-19T06:39:57.645Z,77.50
2018-09-19T06:42:25.719Z,77.60
2018-09-19T06:44:53.848Z,78.60
2018-09-19T06:47:22.946Z,77.90
2018-09-19T06:49:51.042Z,79.00
2018-09-19T06:52:19.192Z,79.40
2018-09-19T06:54:47.298Z,78.60
2018-09-19T06:57:15.381Z,78.30
2018-09-19T06:59:43.583Z,78.70
2018-09-19T07:02:11.685Z,78.70
2018-09-19T07:04:39.821Z,78.50
2018-09-19T07:07:07.996Z,79.00
2018-09-19T07:09:36.296Z,78.80
2018-09-19T07:12:04.426Z,79.10
2018-09-19T07:14:32.526Z,79.10
2018-09-19T07:17:00.648Z,80.00
2018-09-19T07:19:28.734Z,79.20
2018-09-19T07:21:56.862Z,79.50
2018-09-19T07:24:24.988Z,79.40
2018-09-19T07:26:53.062Z,79.40
2018-09-19T07:29:21.235Z,79.50
2018-09-19T07:31:49.353Z,79.40
2018-09-19T07:34:17.461Z,79.40
2018-09-19T07:36:45.594Z,79.20
2018-09-19T07:39:13.730Z,79.10
2018-09-19T07:41:41.826Z,79.10
2018-09-19T07:44:10.663Z,79.00
2018-09-19T07:46:38.864Z,78.90
2018-09-19T07:49:06.882Z,78.80
2018-09-19T07:51:34.985Z,78.80
2018-09-19T07:54:03.089Z,78.50
2018-09-19T07:56:31.332Z,78.60
2018-09-19T07:58:59.534Z,78.40
2018-09-19T08:01:27.614Z,78.40
2018-09-19T08:03:55.816Z,78.10
2018-09-19T08:06:23.902Z,78.00
2018-09-19T08:08:52.050Z,78.10
2018-09-19T08:11:20.098Z,78.80
2018-09-19T08:13:48.191Z,77.80
2018-09-19T08:16:16.316Z,77.70
2018-09-19T08:18:44.413Z,77.60
2018-09-19T08:21:12.510Z,77.40
2018-09-19T08:23:40.595Z,77.50
2018-09-19T08:26:08.707Z,77.70
2018-09-19T08:28:36.890Z,77.50
2018-09-19T08:31:04.958Z,77.10
2018-09-19T08:33:33.258Z,76.80
2018-09-19T08:36:01.340Z,76.20
2018-09-19T08:38:29.475Z,75.80
2018-09-19T08:40:57.637Z,76.20
2018-09-19T08:43:25.777Z,76.00
2018-09-19T08:45:53.859Z,75.60
2018-09-19T08:48:21.947Z,75.50
2018-09-19T08:50:50.084Z,75.30
2018-09-19T08:53:18.148Z,75.30
2018-09-19T08:55:46.239Z,75.10
2018-09-19T08:58:14.324Z,74.30
2018-09-19T09:00:42.427Z,74.10
2018-09-19T09:03:10.542Z,74.20
2018-09-19T09:05:38.631Z,74.00
2018-09-19T09:08:07.000Z,73.70
2018-09-19T09:10:35.095Z,73.70
2018-09-19T09:13:03.181Z,74.00
2018-09-19T09:15:31.320Z,73.40
2018-09-19T09:17:59.442Z,73.20
2018-09-19T09:20:27.598Z,72.60
2018-09-19T09:22:55.690Z,72.50
2018-09-19T09:25:23.805Z,73.00
2018-09-19T09:27:52.034Z,71.80
2018-09-19T09:30:20.296Z,71.50
2018-09-19T09:32:48.418Z,71.90
2018-09-19T09:35:16.506Z,71.60
2018-09-19T09:37:44.717Z,71.10
2018-09-19T09:40:12.879Z,71.10
2018-09-19T09:42:40.910Z,71.20
2018-09-19T09:45:09.024Z,71.20
2018-09-19T09:47:37.118Z,70.70
2018-09-19T09:50:05.515Z,71.40
2018-09-19T09:52:33.636Z,70.30
2018-09-19T09:55:01.731Z,69.60
2018-09-19T09:57:29.866Z,69.40
2018-09-19T09:59:58.031Z,69.20
2018-09-19T10:02:26.127Z,69.00
2018-09-19T10:04:54.216Z,68.90
2018-09-19T10:07:22.313Z,68.80
2018-09-19T10:09:50.440Z,70.10
2018-09-19T10:12:18.523Z,68.90
2018-09-19T10:14:46.714Z,68.80
2018-09-19T10:17:14.814Z,68.10
2018-09-19T10:19:42.980Z,68.20
2018-09-19T10:22:11.175Z,68.30
2018-09-19T10:24:39.263Z,67.70
2018-09-19T10:27:07.451Z,67.50
2018-09-19T10:29:35.700Z,67.60
2018-09-19T10:32:03.696Z,67.20
2018-09-19T10:34:31.976Z,67.30
2018-09-19T10:37:00.075Z,66.30
2018-09-19T10:39:28.256Z,65.60
2018-09-19T10:41:56.365Z,64.90
2018-09-19T10:44:24.535Z,64.80
2018-09-19T10:46:52.648Z,64.40
2018-09-19T10:49:20.743Z,63.50
2018-09-19T10:51:49.709Z,63.60
2018-09-19T10:54:17.785Z,63.70
2018-09-19T10:56:45.969Z,63.50
2018-09-19T10:59:14.046Z,63.80
2018-09-19T11:01:42.120Z,63.00
2018-09-19T11:04:10.200Z,62.20
2018-09-19T11:06:38.346Z,62.90
2018-09-19T11:09:08.313Z,61.70
2018-09-19T11:11:36.455Z,61.40
2018-09-19T11:14:04.564Z,61.50
2018-09-19T11:16:32.662Z,61.60
2018-09-19T11:19:00.735Z,61.40
2018-09-19T11:21:29.147Z,61.70
2018-09-19T11:23:57.258Z,61.80
2018-09-19T11:26:25.352Z,61.80
2018-09-19T11:28:53.442Z,61.00
2018-09-19T11:31:21.590Z,60.90
2018-09-19T11:33:49.745Z,59.50
2018-09-19T11:36:17.847Z,59.30
2018-09-19T11:38:46.050Z,60.00
2018-09-19T11:41:14.143Z,59.00
2018-09-19T11:43:42.222Z,59.50
2018-09-19T11:46:10.306Z,59.80
2018-09-19T11:48:38.427Z,59.60
2018-09-19T11:51:06.735Z,59.20
2018-09-19T11:53:34.832Z,59.40
2018-09-19T11:56:02.917Z,59.20
2018-09-19T11:58:31.219Z,59.10
2018-09-19T12:00:59.630Z,58.90
2018-09-19T12:03:28.389Z,59.50
2018-09-19T12:05:56.489Z,59.20
2018-09-19T12:08:24.628Z,59.30
2018-09-19T12:10:52.723Z,58.00
2018-09-19T12:13:20.894Z,58.30
2018-09-19T12:15:48.962Z,58.30
2018-09-19T12:18:17.125Z,58.10
2018-09-19T12:20:45.219Z,58.30
2018-09-19T12:23:13.314Z,57.70
2018-09-19T12:25:41.407Z,57.60
2018-09-19T12:28:09.734Z,57.10
2018-09-19T12:30:37.831Z,56.60
2018-09-19T12:33:05.938Z,56.90
2018-09-19T12:35:34.055Z,56.90
2018-09-19T12:38:02.150Z,56.50
2018-09-19T12:40:30.326Z,56.20
2018-09-19T12:42:58.546Z,56.00
2018-09-19T12:45:26.649Z,56.10
2018-09-19T12:47:54.731Z,56.30
2018-09-19T12:50:22.822Z,55.80
2018-09-19T12:52:50.946Z,55.50
2018-09-19T12:55:19.097Z,55.50
2018-09-19T12:57:47.435Z,55.20
2018-09-19T13:00:15.555Z,55.00
2018-09-19T13:02:43.669Z,54.10
2018-09-19T13:05:11.775Z,54.90
2018-09-19T13:07:40.066Z,54.70
2018-09-19T13:10:08.753Z,54.60
2018-09-19T13:12:36.930Z,54.30
2018-09-19T13:15:05.036Z,54.60
2018-09-19T13:17:33.177Z,54.50
2018-09-19T13:20:01.311Z,54.40
2018-09-19T13:22:29.405Z,55.20
2018-09-19T13:24:57.509Z,54.50
2018-09-19T13:27:25.693Z,54.50
2018-09-19T13:29:53.779Z,54.20
2018-09-19T13:32:21.930Z,54.00
2018-09-19T13:34:50.102Z,54.00
2018-09-19T13:37:18.557Z,54.20
2018-09-19T13:39:46.641Z,54.30
2018-09-19T13:42:14.767Z,54.00
2018-09-19T13:44:43.451Z,54.40
2018-09-19T13:47:11.587Z,54.40
2018-09-19T13:49:43.364Z,54.00
2018-09-19T13:52:11.439Z,54.00
2018-09-19T13:54:39.551Z,54.80
2018-09-19T13:57:07.662Z,54.30
2018-09-19T13:59:35.741Z,54.40
2018-09-19T14:02:03.846Z,53.80
2018-09-19T14:04:31.998Z,53.40
2018-09-19T14:07:00.154Z,53.60
2018-09-19T14:09:28.243Z,53.30
2018-09-19T14:11:56.493Z,53.00
2018-09-19T14:14:24.608Z,52.90
2018-09-19T14:16:52.782Z,52.90
2018-09-19T14:19:20.913Z,52.60
2018-09-19T14:21:49.024Z,52.60
2018-09-19T14:24:17.133Z,51.80
2018-09-19T14:26:45.198Z,52.10
2018-09-19T14:29:13.410Z,52.50
2018-09-19T14:31:41.590Z,52.70
2018-09-19T14:34:09.763Z,52.80
2018-09-19T14:36:38.316Z,52.50
2018-09-19T14:39:07.597Z,51.80
2018-09-19T14:41:35.719Z,51.90
2018-09-19T14:44:03.819Z,52.10
2018-09-19T14:46:32.135Z,51.70
2018-09-19T14:49:00.269Z,52.10
2018-09-19T14:51:28.380Z,52.40
2018-09-19T14:53:56.495Z,52.50
2018-09-19T14:56:24.619Z,52.40
2018-09-19T14:58:52.827Z,52.30
2018-09-19T15:01:20.898Z,52.00
2018-09-19T15:03:49.003Z,51.20
2018-09-19T15:06:17.121Z,52.00
2018-09-19T15:08:45.301Z,51.90
2018-09-19T15:11:13.450Z,51.40
2018-09-19T15:13:41.623Z,51.50
2018-09-19T15:16:10.202Z,51.20
2018-09-19T15:18:38.585Z,51.20
2018-09-19T15:21:06.739Z,51.10
2018-09-19T15:23:35.064Z,50.90
2018-09-19T15:26:03.256Z,50.80
2018-09-19T15:28:31.706Z,50.50
2018-09-19T15:30:59.815Z,50.60
2018-09-19T15:33:28.053Z,50.90
2018-09-19T15:35:56.167Z,50.80
2018-09-19T15:38:24.340Z,51.10
2018-09-19T15:40:52.543Z,51.00
2018-09-19T15:43:20.639Z,51.50
2018-09-19T15:45:48.815Z,51.40
2018-09-19T15:48:16.959Z,51.30
2018-09-19T15:50:45.873Z,51.50
2018-09-19T15:53:13.991Z,51.60
2018-09-19T15:55:42.127Z,51.80
2018-09-19T15:58:10.214Z,52.00
2018-09-19T16:00:38.448Z,52.00
2018-09-19T16:03:06.554Z,52.00
2018-09-19T16:05:35.009Z,52.20
2018-09-19T16:08:03.144Z,51.90
2018-09-19T16:10:31.265Z,51.90
2018-09-19T16:12:59.400Z,52.10
2018-09-19T16:15:27.515Z,52.00
2018-09-19T16:17:55.635Z,52.40
2018-09-19T16:20:23.728Z,52.50
2018-09-19T16:22:51.847Z,52.30
2018-09-19T16:25:20.095Z,52.50
2018-09-19T16:27:48.199Z,52.60
2018-09-19T16:30:16.322Z,52.70
2018-09-19T16:32:44.435Z,52.60
2018-09-19T16:35:12.565Z,52.60
2018-09-19T16:37:40.780Z,52.70
2018-09-19T16:40:08.916Z,52.60
2018-09-19T16:42:37.053Z,52.80
2018-09-19T16:45:05.502Z,52.90
2018-09-19T16:47:33.611Z,52.90
2018-09-19T16:50:01.718Z,53.00
2018-09-19T16:52:29.926Z,52.90
2018-09-19T16:54:58.206Z,52.80
2018-09-19T16:57:26.377Z,52.90
2018-09-19T16:59:54.512Z,53.00
2018-09-19T17:02:22.721Z,53.10
2018-09-19T17:04:51.120Z,53.20
2018-09-19T17:07:19.220Z,53.20
2018-09-19T17:09:47.314Z,53.30
2018-09-19T17:12:15.565Z,53.40
2018-09-19T17:14:43.902Z,54.00
2018-09-19T17:17:12.010Z,53.40
2018-09-19T17:19:40.134Z,53.50
2018-09-19T17:22:08.652Z,53.80
2018-09-19T17:24:36.796Z,53.60
2018-09-19T17:27:04.887Z,53.90
2018-09-19T17:29:33.002Z,54.70
2018-09-19T17:32:01.151Z,54.00
2018-09-19T17:34:29.288Z,54.20
2018-09-19T17:36:57.512Z,54.10
2018-09-19T17:39:25.677Z,54.20
2018-09-19T17:41:53.949Z,54.20
2018-09-19T17:44:22.052Z,54.30
2018-09-19T17:46:50.219Z,54.20
2018-09-19T17:49:18.343Z,54.30
2018-09-19T17:51:46.492Z,54.40
2018-09-19T17:54:14.596Z,54.40
2018-09-19T17:56:42.795Z,54.60
2018-09-19T17:59:10.924Z,54.60
2018-09-19T18:01:39.101Z,54.70
2018-09-19T18:04:07.658Z,55.40
2018-09-19T18:06:36.487Z,55.10
2018-09-19T18:09:05.832Z,55.10
2018-09-19T18:11:34.092Z,56.10
2018-09-19T18:14:02.232Z,56.20
2018-09-19T18:16:30.316Z,56.10
2018-09-19T18:18:58.525Z,56.00
2018-09-19T18:21:26.643Z,56.00
2018-09-19T18:23:54.935Z,56.10
2018-09-19T18:26:23.331Z,55.80
2018-09-19T18:28:51.495Z,55.70
2018-09-19T18:31:19.615Z,56.30
2018-09-19T18:33:48.331Z,56.30
2018-09-19T18:36:16.415Z,56.40
2018-09-19T18:38:44.602Z,57.10
2018-09-19T18:41:12.799Z,56.70
2018-09-19T18:43:40.998Z,56.70
2018-09-19T18:46:09.178Z,57.10
2018-09-19T18:48:37.275Z,57.20
2018-09-19T18:51:05.357Z,57.90
2018-09-19T18:53:33.463Z,57.80
2018-09-19T18:56:01.576Z,57.70
2018-09-19T18:58:29.671Z,57.60
2018-09-19T19:00:57.887Z,57.60
2018-09-19T19:03:26.015Z,57.70
2018-09-19T19:05:54.214Z,57.60
2018-09-19T19:08:22.503Z,57.80
2018-09-19T19:10:50.705Z,57.50
2018-09-19T19:13:18.908Z,57.70
2018-09-19T19:15:47.019Z,57.90
2018-09-19T19:18:15.156Z,58.00
2018-09-19T19:20:43.335Z,58.00
2018-09-19T19:23:11.439Z,58.00
2018-09-19T19:25:39.570Z,58.30
2018-09-19T19:28:07.782Z,59.30
2018-09-19T19:30:36.098Z,58.60
2018-09-19T19:33:04.117Z,58.50
2018-09-19T19:35:32.227Z,58.70
2018-09-19T19:38:00.374Z,58.70
2018-09-19T19:40:28.484Z,58.90
2018-09-19T19:42:56.697Z,58.90
2018-09-19T19:45:24.874Z,59.00
2018-09-19T19:47:53.021Z,58.90
2018-09-19T19:50:21.118Z,58.90
2018-09-19T19:52:49.303Z,59.00
2018-09-19T19:55:17.379Z,59.10
2018-09-19T19:57:45.532Z,59.10
2018-09-19T20:00:13.708Z,59.30
2018-09-19T20:02:41.827Z,59.20
2018-09-19T20:05:09.958Z,59.30
2018-09-19T20:07:38.059Z,59.30
2018-09-19T20:10:06.184Z,59.30
2018-09-19T20:12:34.486Z,59.30
2018-09-19T20:15:02.608Z,59.30
2018-09-19T20:17:31.451Z,59.30
2018-09-19T20:19:59.659Z,59.30
2018-09-19T20:22:27.873Z,59.30
2018-09-19T20:24:56.062Z,59.40
2018-09-19T20:27:24.141Z,59.40
2018-09-19T20:29:52.247Z,59.60
2018-09-19T20:32:20.333Z,59.60
2018-09-19T20:34:48.559Z,59.70
2018-09-19T20:37:16.678Z,59.70
2018-09-19T20:39:45.035Z,59.70
2018-09-19T20:42:13.098Z,59.80
2018-09-19T20:44:41.232Z,59.90
2018-09-19T20:47:09.331Z,60.10
2018-09-19T20:49:37.419Z,60.00
2018-09-19T20:52:05.578Z,60.10
2018-09-19T20:54:33.666Z,60.00
2018-09-19T20:57:01.767Z,60.00
2018-09-19T20:59:30.044Z,60.00
2018-09-19T21:01:58.194Z,60.20
2018-09-19T21:04:26.398Z,60.50
2018-09-19T21:06:54.512Z,60.10
2018-09-19T21:09:22.599Z,60.10
2018-09-19T21:11:50.730Z,60.30
2018-09-19T21:14:18.896Z,60.30
2018-09-19T21:16:47.004Z,60.50
2018-09-19T21:19:15.075Z,60.50
2018-09-19T21:21:43.457Z,60.40
2018-09-19T21:24:11.586Z,61.30
2018-09-19T21:26:39.705Z,61.20
2018-09-19T21:29:09.845Z,61.20
2018-09-19T21:31:38.103Z,61.10
2018-09-19T21:34:06.714Z,60.90
2018-09-19T21:36:34.977Z,60.80
2018-09-19T21:39:04.034Z,60.70
2018-09-19T21:41:32.132Z,60.70
2018-09-19T21:44:00.241Z,60.80
2018-09-19T21:46:28.428Z,60.90
2018-09-19T21:48:56.641Z,60.90
2018-09-19T21:51:25.290Z,61.00
2018-09-19T21:53:53.642Z,60.90
2018-09-19T21:56:22.195Z,60.50
2018-09-19T21:58:50.299Z,60.90
2018-09-19T22:01:23.851Z,61.10
2018-09-19T22:03:52.623Z,61.20
2018-09-19T22:06:21.521Z,60.90
2018-09-19T22:08:49.722Z,61.10
2018-09-19T22:11:17.843Z,61.30
2018-09-19T22:13:45.967Z,60.70
2018-09-19T22:16:14.048Z,61.40
2018-09-19T22:18:42.139Z,61.80
2018-09-19T22:21:10.294Z,61.60
2018-09-19T22:23:38.454Z,61.60
2018-09-19T22:26:06.618Z,61.70
2018-09-19T22:28:34.720Z,61.80
2018-09-19T22:31:03.143Z,61.80
2018-09-19T22:33:31.270Z,61.90
2018-09-19T22:35:59.438Z,61.90
2018-09-19T22:38:27.499Z,62.00
2018-09-19T22:40:55.567Z,62.10
2018-09-19T22:43:23.654Z,62.10
2018-09-19T22:45:51.767Z,62.10
2018-09-19T22:48:19.880Z,62.50
2018-09-19T22:50:47.975Z,62.40
2018-09-19T22:53:16.120Z,62.30
2018-09-19T22:55:44.202Z,62.50
2018-09-19T22:58:12.327Z,62.50
2018-09-19T23:00:40.404Z,62.60
2018-09-19T23:03:08.584Z,62.70
2018-09-19T23:05:36.694Z,62.80
2018-09-19T23:08:04.858Z,62.90
2018-09-19T23:10:32.973Z,63.00
2018-09-19T23:13:01.115Z,63.10
2018-09-19T23:15:29.342Z,63.20
2018-09-19T23:17:57.392Z,63.20
2018-09-19T23:20:25.529Z,63.30
2018-09-19T23:22:53.642Z,63.30
2018-09-19T23:25:21.712Z,63.40
2018-09-19T23:27:49.799Z,63.50
2018-09-19T23:30:17.913Z,63.60
2018-09-19T23:32:45.995Z,63.60
2018-09-19T23:35:14.106Z,63.60
2018-09-19T23:37:42.194Z,63.80
2018-09-19T23:40:10.280Z,63.90
2018-09-19T23:42:38.367Z,64.10
2018-09-19T23:45:06.560Z,64.10
2018-09-19T23:47:34.668Z,64.10
2018-09-19T23:50:02.852Z,64.20
2018-09-19T23:52:31.048Z,64.30
2018-09-19T23:54:59.133Z,64.40
2018-09-19T23:57:27.242Z,64.50
2018-09-19T23:59:55.333Z,64.40
